createdAt,value
2018-08-11T00:00:38.305Z,0
2018-08-11T00:01:18.707Z,0
2018-08-11T00:01:59.111Z,0
2018-08-11T00:02:39.552Z,0
2018-08-11T00:03:19.900Z,0
2018-08-11T00:04:00.318Z,0
2018-08-11T00:04:40.749Z,0
2018-08-11T00:08:23.446Z,0
2018-08-11T00:09:03.639Z,0
2018-08-11T00:09:44.036Z,0
2018-08-11T00:10:24.515Z,0
2018-08-11T00:11:04.869Z,0
2018-08-11T00:11:45.288Z,0
2018-08-11T00:12:25.696Z,0
2018-08-11T00:13:06.101Z,0
2018-08-11T00:13:46.515Z,0
2018-08-11T00:14:26.988Z,0
2018-08-11T00:15:07.357Z,0
2018-08-11T00:15:47.760Z,0
2018-08-11T00:16:28.135Z,0
2018-08-11T00:17:08.669Z,0
2018-08-11T00:17:49.075Z,0
2018-08-11T00:18:29.540Z,0
2018-08-11T00:19:09.918Z,0
2018-08-11T00:19:50.382Z,0
2018-08-11T00:20:30.804Z,0
2018-08-11T00:21:11.222Z,0
2018-08-11T00:21:51.694Z,0
2018-08-11T00:22:32.074Z,0
2018-08-11T00:23:12.519Z,0
2018-08-11T00:23:52.934Z,0
2018-08-11T00:24:33.242Z,0
2018-08-11T00:25:13.729Z,0
2018-08-11T00:28:14.776Z,0
2018-08-11T00:28:55.270Z,0
2018-08-11T00:29:35.567Z,0
2018-08-11T00:30:15.993Z,0
2018-08-11T00:30:56.383Z,0
2018-08-11T00:31:36.866Z,0
2018-08-11T00:33:54.788Z,0
2018-08-11T00:34:35.284Z,0
2018-08-11T00:35:15.647Z,0
2018-08-11T00:35:56.041Z,0
2018-08-11T00:36:36.468Z,0
2018-08-11T00:37:16.804Z,0
2018-08-11T00:37:57.193Z,0
2018-08-11T00:38:37.572Z,0
2018-08-11T00:39:17.987Z,0
2018-08-11T00:39:58.460Z,0
2018-08-11T00:40:39.251Z,0
2018-08-11T00:41:19.680Z,0
2018-08-11T00:43:52.813Z,0
2018-08-11T00:44:33.151Z,0
2018-08-11T00:45:13.555Z,0
2018-08-11T00:45:53.967Z,0
2018-08-11T00:46:34.546Z,0
2018-08-11T00:47:15.236Z,0
2018-08-11T00:50:11.893Z,0
2018-08-11T00:50:52.526Z,0
2018-08-11T00:51:32.807Z,0
2018-08-11T00:52:13.434Z,0
2018-08-11T00:52:53.928Z,0
2018-08-11T00:53:34.826Z,0
2018-08-11T00:56:08.432Z,0
2018-08-11T00:56:48.907Z,0
2018-08-11T00:57:29.355Z,0
2018-08-11T00:58:09.675Z,0
2018-08-11T00:58:50.142Z,0
2018-08-11T00:59:30.537Z,0
2018-08-11T01:00:10.932Z,0
2018-08-11T01:00:53.189Z,0
2018-08-11T01:01:32.619Z,0
2018-08-11T01:02:13.005Z,0
2018-08-11T01:02:53.391Z,0
2018-08-11T01:03:34.072Z,0
2018-08-11T01:04:14.469Z,0
2018-08-11T01:04:54.866Z,0
2018-08-11T01:05:35.513Z,0
2018-08-11T01:06:16.108Z,0
2018-08-11T01:06:56.244Z,0
2018-08-11T01:07:36.800Z,0
2018-08-11T01:08:17.354Z,0
2018-08-11T01:08:57.772Z,0
2018-08-11T01:09:38.160Z,0
2018-08-11T01:12:09.674Z,0
2018-08-11T01:12:49.421Z,0
2018-08-11T01:15:02.015Z,0
2018-08-11T01:15:42.420Z,0
2018-08-11T01:16:22.848Z,0
2018-08-11T01:17:03.207Z,0
2018-08-11T01:17:43.591Z,0
2018-08-11T01:18:24.669Z,0
2018-08-11T01:20:39.769Z,0
2018-08-11T01:21:20.040Z,0
2018-08-11T01:22:00.437Z,0
2018-08-11T01:22:40.879Z,0
2018-08-11T01:23:21.356Z,0
2018-08-11T01:26:02.305Z,0
2018-08-11T01:26:42.324Z,0
2018-08-11T01:27:23.330Z,0
2018-08-11T01:28:03.996Z,0
2018-08-11T01:28:44.414Z,0
2018-08-11T01:29:24.858Z,0
2018-08-11T01:30:05.268Z,0
2018-08-11T01:30:45.783Z,0
2018-08-11T01:31:26.321Z,0
2018-08-11T01:32:06.682Z,0
2018-08-11T01:32:47.124Z,0
2018-08-11T01:33:27.704Z,0
2018-08-11T01:34:08.118Z,0
2018-08-11T01:34:48.769Z,0
2018-08-11T01:35:29.215Z,0
2018-08-11T01:36:09.606Z,0
2018-08-11T01:36:50.086Z,0
2018-08-11T01:37:30.645Z,0
2018-08-11T01:38:11.257Z,0
2018-08-11T01:38:51.773Z,0
2018-08-11T01:39:32.261Z,0
2018-08-11T01:40:12.775Z,0
2018-08-11T01:40:53.236Z,0
2018-08-11T01:41:33.930Z,0
2018-08-11T01:42:14.624Z,0
2018-08-11T01:42:54.803Z,0
2018-08-11T01:43:35.218Z,0
2018-08-11T01:44:15.699Z,0
2018-08-11T01:44:56.259Z,0
2018-08-11T01:45:36.707Z,0
2018-08-11T01:46:17.207Z,0
2018-08-11T01:46:57.638Z,0
2018-08-11T01:47:37.982Z,0
2018-08-11T01:48:18.549Z,0
2018-08-11T01:48:58.956Z,0
2018-08-11T01:49:39.777Z,0
2018-08-11T01:50:20.468Z,0
2018-08-11T01:51:00.887Z,0
2018-08-11T01:51:42.792Z,0
2018-08-11T01:54:10.726Z,0
2018-08-11T01:54:51.601Z,0
2018-08-11T01:55:32.228Z,0
2018-08-11T01:56:12.459Z,0
2018-08-11T01:56:52.840Z,0
2018-08-11T01:57:33.596Z,0
2018-08-11T01:58:14.018Z,0
2018-08-11T01:58:54.446Z,0
2018-08-11T01:59:35.036Z,0
2018-08-11T02:00:15.338Z,0
2018-08-11T02:00:55.828Z,0
2018-08-11T02:01:37.021Z,0
2018-08-11T02:02:17.524Z,0
2018-08-11T02:02:58.393Z,0
2018-08-11T02:03:38.869Z,0
2018-08-11T02:04:19.238Z,0
2018-08-11T02:04:59.725Z,0
2018-08-11T02:05:40.126Z,0
2018-08-11T02:06:20.644Z,0
2018-08-11T02:07:01.397Z,0
2018-08-11T02:07:43.111Z,0
2018-08-11T02:08:23.937Z,0
2018-08-11T02:09:04.535Z,0
2018-08-11T02:09:44.923Z,0
2018-08-11T02:10:25.384Z,0
2018-08-11T02:11:06.229Z,0
2018-08-11T02:11:47.009Z,0
2018-08-11T02:12:28.238Z,0
2018-08-11T02:13:08.095Z,0
2018-08-11T02:13:48.587Z,0
2018-08-11T02:14:29.078Z,0
2018-08-11T02:15:09.484Z,0
2018-08-11T02:15:50.082Z,0
2018-08-11T02:16:30.399Z,0
2018-08-11T02:17:10.823Z,0
2018-08-11T02:17:51.264Z,0
2018-08-11T02:18:31.678Z,0
2018-08-11T02:19:12.045Z,0
2018-08-11T02:19:52.504Z,0
2018-08-11T02:20:32.958Z,0
2018-08-11T02:21:13.583Z,0
2018-08-11T02:21:54.019Z,0
2018-08-11T02:22:34.407Z,0
2018-08-11T02:23:14.869Z,0
2018-08-11T02:23:55.891Z,0
2018-08-11T02:24:36.285Z,0
2018-08-11T02:25:16.720Z,0
2018-08-11T02:25:57.173Z,0
2018-08-11T02:26:37.586Z,0
2018-08-11T02:28:55.316Z,0
2018-08-11T02:29:35.916Z,0
2018-08-11T02:30:16.553Z,0
2018-08-11T02:30:57.924Z,0
2018-08-11T02:31:38.652Z,0
2018-08-11T02:32:19.007Z,0
2018-08-11T02:32:59.576Z,0
2018-08-11T02:33:39.984Z,0
2018-08-11T02:34:20.387Z,0
2018-08-11T02:35:00.773Z,0
2018-08-11T02:37:13.703Z,0
2018-08-11T02:37:54.072Z,0
2018-08-11T02:38:34.506Z,0
2018-08-11T02:39:14.890Z,0
2018-08-11T02:39:55.325Z,0
2018-08-11T02:40:35.773Z,0
2018-08-11T02:41:16.113Z,0
2018-08-11T02:43:43.922Z,0
2018-08-11T02:44:24.299Z,0
2018-08-11T02:45:04.729Z,0
2018-08-11T02:45:45.131Z,0
2018-08-11T02:46:25.597Z,0
2018-08-11T02:47:06.004Z,0
2018-08-11T02:47:46.384Z,0
2018-08-11T02:48:26.876Z,0
2018-08-11T02:49:07.299Z,0
2018-08-11T02:49:47.662Z,0
2018-08-11T02:50:28.156Z,0
2018-08-11T02:51:08.527Z,0
2018-08-11T02:51:48.929Z,0
2018-08-11T02:52:29.317Z,0
2018-08-11T02:53:09.707Z,0
2018-08-11T02:53:50.090Z,0
2018-08-11T02:54:30.541Z,0
2018-08-11T02:55:10.924Z,0
2018-08-11T02:55:51.347Z,0
2018-08-11T02:56:31.689Z,0
2018-08-11T02:57:12.130Z,0
2018-08-11T02:57:52.486Z,0
2018-08-11T02:58:32.882Z,0
2018-08-11T03:01:06.141Z,0
2018-08-11T03:01:46.545Z,0
2018-08-11T03:02:27.046Z,0
2018-08-11T03:03:07.338Z,0
2018-08-11T03:03:47.780Z,0
2018-08-11T03:04:28.154Z,0
2018-08-11T03:05:08.576Z,0
2018-08-11T03:05:48.967Z,0
2018-08-11T03:08:22.221Z,0
2018-08-11T03:09:02.546Z,0
2018-08-11T03:09:42.972Z,0
2018-08-11T03:10:23.362Z,0
2018-08-11T03:11:03.796Z,0
2018-08-11T03:11:44.170Z,0
2018-08-11T03:12:24.599Z,0
2018-08-11T03:13:04.995Z,0
2018-08-11T03:13:45.438Z,0
2018-08-11T03:14:25.806Z,0
2018-08-11T03:15:06.227Z,0
2018-08-11T03:15:46.630Z,0
2018-08-11T03:16:27.027Z,0
2018-08-11T03:17:07.427Z,0
2018-08-11T03:17:47.839Z,0
2018-08-11T03:18:28.225Z,0
2018-08-11T03:19:08.625Z,0
2018-08-11T03:19:49.025Z,0
2018-08-11T03:20:29.485Z,0
2018-08-11T03:21:09.871Z,0
2018-08-11T03:21:50.246Z,0
2018-08-11T03:22:30.645Z,0
2018-08-11T03:23:11.050Z,0
2018-08-11T03:23:51.454Z,0
2018-08-11T03:24:31.892Z,0
2018-08-11T03:25:12.296Z,0
2018-08-11T03:25:52.712Z,0
2018-08-11T03:26:33.127Z,0
2018-08-11T03:27:13.557Z,0
2018-08-11T03:27:54.002Z,0
2018-08-11T03:28:34.389Z,0
2018-08-11T03:29:14.798Z,0
2018-08-11T03:29:55.210Z,0
2018-08-11T03:32:13.099Z,0
2018-08-11T03:32:53.521Z,0
2018-08-11T03:33:33.894Z,0
2018-08-11T03:34:14.296Z,0
2018-08-11T03:34:54.704Z,0
2018-08-11T03:35:35.090Z,0
2018-08-11T03:36:15.490Z,0
2018-08-11T03:36:55.868Z,0
2018-08-11T03:37:36.273Z,0
2018-08-11T03:38:16.654Z,0
2018-08-11T03:38:57.068Z,0
2018-08-11T03:39:37.489Z,0
2018-08-11T03:40:17.858Z,0
2018-08-11T03:40:58.257Z,0
2018-08-11T03:41:38.685Z,0
2018-08-11T03:42:19.058Z,0
2018-08-11T03:42:59.482Z,0
2018-08-11T03:43:39.919Z,0
2018-08-11T03:44:20.295Z,0
2018-08-11T03:45:00.686Z,0
2018-08-11T03:45:41.094Z,0
2018-08-11T03:46:21.501Z,0
2018-08-11T03:47:01.951Z,0
2018-08-11T03:47:42.335Z,0
2018-08-11T03:48:22.766Z,0
2018-08-11T03:49:03.172Z,0
2018-08-11T03:49:43.530Z,0
2018-08-11T03:50:23.962Z,0
2018-08-11T03:51:04.398Z,0
2018-08-11T03:51:44.748Z,0
2018-08-11T03:52:25.202Z,0
2018-08-11T03:53:05.589Z,0
2018-08-11T03:53:45.990Z,0
2018-08-11T03:54:26.438Z,0
2018-08-11T03:55:06.794Z,0
2018-08-11T03:55:47.208Z,0
2018-08-11T03:56:27.628Z,0
2018-08-11T03:57:08.049Z,0
2018-08-11T03:57:48.458Z,0
2018-08-11T03:58:28.885Z,0
2018-08-11T03:59:09.290Z,0
2018-08-11T03:59:49.700Z,0
2018-08-11T04:00:30.103Z,0
2018-08-11T04:01:10.594Z,0
2018-08-11T04:01:50.946Z,0
2018-08-11T04:02:31.368Z,0
2018-08-11T04:03:11.761Z,0
2018-08-11T04:03:52.190Z,0
2018-08-11T04:04:32.603Z,0
2018-08-11T04:05:13.045Z,0
2018-08-11T04:05:53.458Z,0
2018-08-11T04:08:11.534Z,0
2018-08-11T04:08:51.686Z,0
2018-08-11T04:09:32.092Z,0
2018-08-11T04:10:12.501Z,0
2018-08-11T04:10:52.898Z,0
2018-08-11T04:13:21.103Z,0
2018-08-11T04:14:01.544Z,0
2018-08-11T04:14:41.973Z,0
2018-08-11T04:15:22.351Z,0
2018-08-11T04:16:02.792Z,0
2018-08-11T04:16:43.200Z,0
2018-08-11T04:17:23.601Z,0
2018-08-11T04:18:04.020Z,0
2018-08-11T04:18:44.390Z,0
2018-08-11T04:19:24.799Z,0
2018-08-11T04:20:05.189Z,0
2018-08-11T04:20:45.599Z,0
2018-08-11T04:21:26.000Z,0
2018-08-11T04:22:06.410Z,0
2018-08-11T04:22:46.852Z,0
2018-08-11T04:23:27.212Z,0
2018-08-11T04:24:07.640Z,0
2018-08-11T04:24:48.012Z,0
2018-08-11T04:25:28.411Z,0
2018-08-11T04:26:08.818Z,0
2018-08-11T04:26:49.226Z,0
2018-08-11T04:27:29.606Z,0
2018-08-11T04:28:10.003Z,0
2018-08-11T11:08:37.776Z,50
2018-08-11T11:09:17.709Z,50
2018-08-11T11:09:58.145Z,80
2018-08-11T11:10:38.787Z,80
2018-08-11T11:11:19.085Z,80
2018-08-11T11:11:59.501Z,80
2018-08-11T11:12:39.949Z,80
2018-08-11T11:13:20.328Z,80
2018-08-11T11:14:00.878Z,80
2018-08-11T11:14:41.476Z,80
2018-08-11T11:15:21.811Z,80
2018-08-11T11:16:02.257Z,80
2018-08-11T11:16:42.610Z,80
2018-08-11T11:17:23.151Z,80
2018-08-11T11:18:03.494Z,80
2018-08-11T11:18:43.974Z,80
2018-08-11T11:19:24.357Z,80
2018-08-11T11:20:04.804Z,60
2018-08-11T11:20:45.334Z,50
2018-08-11T11:21:25.663Z,80
2018-08-11T11:22:06.058Z,80
2018-08-11T11:22:46.509Z,75
2018-08-11T11:23:26.968Z,75
2018-08-11T11:24:07.393Z,75
2018-08-11T11:24:47.869Z,55
2018-08-11T11:25:28.243Z,45
2018-08-11T11:26:08.747Z,45
2018-08-11T11:26:49.170Z,45
2018-08-11T11:27:29.641Z,45
2018-08-11T11:28:10.270Z,45
2018-08-11T11:28:50.897Z,45
2018-08-11T11:29:31.247Z,45
2018-08-11T11:32:01.647Z,75
2018-08-11T11:32:42.536Z,75
2018-08-11T11:35:56.599Z,75
2018-08-11T11:36:37.146Z,80
2018-08-11T11:37:17.767Z,80
2018-08-11T11:37:58.373Z,80
2018-08-11T11:38:38.482Z,75
2018-08-11T11:39:18.905Z,75
2018-08-11T11:39:59.328Z,75
2018-08-11T11:40:39.790Z,75
2018-08-11T11:41:20.247Z,75
2018-08-11T11:42:00.625Z,80
2018-08-11T11:42:41.077Z,80
2018-08-11T11:43:21.753Z,80
2018-08-11T11:44:02.200Z,80
2018-08-11T11:44:42.641Z,80
2018-08-11T11:45:23.081Z,80
2018-08-11T11:46:03.477Z,80
2018-08-11T11:46:43.866Z,80
2018-08-11T11:47:24.489Z,75
2018-08-11T11:48:04.766Z,80
2018-08-11T11:48:45.209Z,80
2018-08-11T11:49:25.609Z,80
2018-08-11T11:50:06.039Z,85
2018-08-11T11:50:46.468Z,85
2018-08-11T11:51:27.074Z,85
2018-08-11T11:52:08.694Z,85
2018-08-11T11:52:49.316Z,85
2018-08-11T11:53:29.726Z,85
2018-08-11T11:54:10.218Z,85
2018-08-11T11:54:50.724Z,85
2018-08-11T11:55:31.431Z,85
2018-08-11T11:56:11.837Z,85
2018-08-11T11:56:52.299Z,85
2018-08-11T11:57:32.777Z,80
2018-08-11T11:59:50.708Z,80
2018-08-11T12:00:30.982Z,80
2018-08-11T12:01:11.386Z,80
2018-08-11T12:01:53.439Z,80
2018-08-11T12:02:33.803Z,80
2018-08-11T12:03:14.498Z,80
2018-08-11T12:03:54.950Z,80
2018-08-11T12:04:35.385Z,70
2018-08-11T12:05:18.592Z,50
2018-08-11T12:05:59.012Z,50
2018-08-11T12:06:39.585Z,65
2018-08-11T12:07:19.755Z,75
2018-08-11T12:10:06.301Z,80
2018-08-11T12:10:46.654Z,80
2018-08-11T12:11:27.057Z,75
2018-08-11T12:12:08.409Z,75
2018-08-11T12:12:48.828Z,75
2018-08-11T12:13:29.579Z,75
2018-08-11T12:14:10.005Z,75
2018-08-11T12:14:50.409Z,75
2018-08-11T12:15:31.196Z,75
2018-08-11T12:16:12.195Z,55
2018-08-11T12:19:30.946Z,80
2018-08-11T12:20:11.281Z,50
2018-08-11T12:20:51.752Z,50
2018-08-11T12:21:32.307Z,50
2018-08-11T12:22:12.675Z,45
2018-08-11T12:22:53.363Z,45
2018-08-11T12:25:32.516Z,75
2018-08-11T12:26:12.722Z,60
2018-08-11T12:26:53.332Z,70
2018-08-11T12:27:33.886Z,65
2018-08-11T12:28:14.250Z,70
2018-08-11T12:28:54.612Z,70
2018-08-11T12:29:34.996Z,70
2018-08-11T12:30:15.524Z,65
2018-08-11T12:30:56.047Z,65
2018-08-11T12:31:36.567Z,55
2018-08-11T12:32:16.977Z,60
2018-08-11T12:32:57.473Z,65
2018-08-11T12:33:37.970Z,70
2018-08-11T12:34:18.541Z,70
2018-08-11T12:34:58.900Z,65
2018-08-11T12:35:39.716Z,50
2018-08-11T12:36:20.001Z,45
2018-08-11T12:37:00.547Z,65
2018-08-11T12:37:41.017Z,65
2018-08-11T12:38:21.445Z,45
2018-08-11T12:39:01.890Z,45
2018-08-11T12:39:42.492Z,65
2018-08-11T12:40:22.844Z,65
2018-08-11T12:42:51.201Z,65
2018-08-11T12:43:31.543Z,60
2018-08-11T12:44:11.986Z,50
2018-08-11T12:44:52.636Z,65
2018-08-11T12:45:33.229Z,45
2018-08-11T12:46:13.612Z,55
2018-08-11T12:46:54.129Z,60
2018-08-11T12:47:34.437Z,60
2018-08-11T12:48:14.828Z,60
2018-08-11T12:48:55.336Z,60
2018-08-11T12:49:35.725Z,60
2018-08-11T12:50:16.714Z,60
2018-08-11T12:50:57.097Z,60
2018-08-11T12:51:37.584Z,60
2018-08-11T12:52:18.380Z,60
2018-08-11T12:52:59.185Z,60
2018-08-11T12:53:39.589Z,60
2018-08-11T12:54:21.539Z,60
2018-08-11T12:55:01.808Z,60
2018-08-11T12:55:42.303Z,60
2018-08-11T12:56:22.689Z,60
2018-08-11T12:57:03.288Z,60
2018-08-11T12:57:43.681Z,60
2018-08-11T12:58:24.078Z,60
2018-08-11T12:59:04.503Z,60
2018-08-11T12:59:45.309Z,60
2018-08-11T13:00:25.888Z,60
2018-08-11T13:01:06.286Z,60
2018-08-11T13:01:46.715Z,60
2018-08-11T13:02:27.145Z,60
2018-08-11T13:03:07.659Z,60
2018-08-11T13:03:48.176Z,60
2018-08-11T13:04:28.665Z,60
2018-08-11T13:05:09.050Z,60
2018-08-11T13:05:49.580Z,60
2018-08-11T13:06:30.042Z,60
2018-08-11T13:07:10.527Z,60
2018-08-11T13:07:50.988Z,60
2018-08-11T13:08:31.397Z,65
2018-08-11T13:09:11.840Z,65
2018-08-11T13:11:50.671Z,65
2018-08-11T13:12:31.086Z,65
2018-08-11T13:13:11.474Z,65
2018-08-11T13:13:51.910Z,60
2018-08-11T13:14:32.579Z,60
2018-08-11T13:15:13.508Z,65
2018-08-11T13:19:33.141Z,50
2018-08-11T13:20:13.845Z,40
2018-08-11T13:20:54.649Z,40
2018-08-11T13:21:35.060Z,55
2018-08-11T13:22:15.543Z,70
2018-08-11T13:22:58.726Z,70
2018-08-11T13:23:39.152Z,70
2018-08-11T13:24:19.549Z,65
2018-08-11T13:24:59.968Z,55
2018-08-11T13:25:40.572Z,65
2018-08-11T13:26:20.979Z,65
2018-08-11T13:27:01.532Z,50
2018-08-11T13:27:41.886Z,65
2018-08-11T13:28:22.198Z,65
2018-08-11T13:29:02.694Z,65
2018-08-11T13:29:43.108Z,65
2018-08-11T13:30:23.554Z,65
2018-08-11T13:31:03.930Z,65
2018-08-11T13:35:17.962Z,65
2018-08-11T13:35:57.924Z,65
2018-08-11T13:36:38.370Z,65
2018-08-11T13:37:18.815Z,65
2018-08-11T13:37:59.231Z,50
2018-08-11T13:38:39.786Z,40
2018-08-11T13:39:20.057Z,50
2018-08-11T13:40:00.474Z,60
2018-08-11T13:40:41.046Z,60
2018-08-11T13:41:22.077Z,60
2018-08-11T13:42:02.274Z,60
2018-08-11T13:42:42.818Z,60
2018-08-11T13:43:23.483Z,55
2018-08-11T13:44:03.931Z,55
2018-08-11T13:44:44.365Z,55
2018-08-11T13:45:24.853Z,55
2018-08-11T13:46:05.260Z,55
2018-08-11T13:46:45.703Z,55
2018-08-11T13:47:29.010Z,30
2018-08-11T13:48:09.521Z,30
2018-08-11T13:48:49.914Z,55
2018-08-11T13:49:30.902Z,55
2018-08-11T13:50:11.718Z,55
2018-08-11T13:50:51.736Z,55
2018-08-11T13:51:32.201Z,55
2018-08-11T13:52:12.583Z,55
2018-08-11T13:52:53.084Z,55
2018-08-11T13:53:33.839Z,55
2018-08-11T13:54:14.153Z,55
2018-08-11T13:54:54.676Z,55
2018-08-11T13:55:35.039Z,55
2018-08-11T13:56:15.485Z,55
2018-08-11T13:56:55.915Z,55
2018-08-11T13:57:36.348Z,35
2018-08-11T13:58:18.222Z,35
2018-08-11T13:58:58.409Z,55
2018-08-11T13:59:38.836Z,60
2018-08-11T14:00:19.265Z,60
2018-08-11T14:00:59.747Z,45
2018-08-11T14:01:40.333Z,50
2018-08-11T14:02:20.800Z,45
2018-08-11T14:03:01.515Z,40
2018-08-11T14:03:41.937Z,50
2018-08-11T14:04:22.706Z,55
2018-08-11T14:05:03.174Z,55
2018-08-11T14:05:43.693Z,55
2018-08-11T14:06:24.534Z,55
2018-08-11T14:07:05.017Z,55
2018-08-11T14:07:45.732Z,55
2018-08-11T14:08:26.069Z,55
2018-08-11T14:09:06.454Z,55
2018-08-11T14:09:46.905Z,55
2018-08-11T14:10:27.272Z,55
2018-08-11T14:11:09.529Z,55
2018-08-11T14:11:49.832Z,55
2018-08-11T14:12:30.252Z,55
2018-08-11T14:13:10.883Z,55
2018-08-11T14:13:51.487Z,55
2018-08-11T14:14:31.918Z,55
2018-08-11T14:15:12.314Z,55
2018-08-11T14:15:52.900Z,55
2018-08-11T14:18:27.884Z,50
2018-08-11T14:19:08.268Z,50
2018-08-11T14:19:49.142Z,50
2018-08-11T14:20:29.310Z,50
2018-08-11T14:21:09.859Z,40
2018-08-11T14:21:50.478Z,30
2018-08-11T14:22:31.199Z,30
2018-08-11T14:23:12.110Z,50
2018-08-11T14:23:52.757Z,50
2018-08-11T14:24:33.144Z,50
2018-08-11T14:25:13.622Z,50
2018-08-11T14:25:54.060Z,50
2018-08-11T14:26:34.628Z,50
2018-08-11T14:27:15.048Z,50
2018-08-11T14:27:55.446Z,55
2018-08-11T14:28:35.867Z,55
2018-08-11T14:29:17.221Z,55
2018-08-11T14:29:58.061Z,50
2018-08-11T14:30:38.408Z,50
2018-08-11T14:31:18.836Z,50
2018-08-11T14:34:29.233Z,50
2018-08-11T14:35:09.666Z,50
2018-08-11T14:35:50.253Z,50
2018-08-11T14:36:30.444Z,45
2018-08-11T14:37:11.082Z,50
2018-08-11T14:39:25.624Z,50
2018-08-11T14:42:05.339Z,50
2018-08-11T14:42:45.856Z,50
2018-08-11T14:43:26.309Z,50
2018-08-11T14:44:06.643Z,50
2018-08-11T14:44:47.257Z,50
2018-08-11T14:45:28.091Z,50
2018-08-11T14:46:08.548Z,50
2018-08-11T14:46:49.042Z,50
2018-08-11T14:47:29.557Z,50
2018-08-11T14:48:09.870Z,50
2018-08-11T14:50:30.741Z,50
2018-08-11T14:51:11.374Z,50
2018-08-11T14:51:51.817Z,45
2018-08-11T14:52:32.285Z,45
2018-08-11T14:53:12.689Z,45
2018-08-11T14:53:53.137Z,50
2018-08-11T14:54:34.025Z,50
2018-08-11T14:55:14.079Z,45
2018-08-11T14:55:54.510Z,45
2018-08-11T14:56:34.917Z,45
2018-08-11T14:57:15.401Z,45
2018-08-11T14:57:56.250Z,45
2018-08-11T14:58:36.724Z,45
2018-08-11T14:59:17.085Z,45
2018-08-11T14:59:57.558Z,45
2018-08-11T15:00:38.013Z,45
2018-08-11T15:01:18.826Z,45
2018-08-11T15:01:59.107Z,45
2018-08-11T15:02:39.557Z,45
2018-08-11T15:03:19.985Z,45
2018-08-11T15:04:00.408Z,45
2018-08-11T15:04:40.901Z,45
2018-08-11T15:05:21.737Z,45
2018-08-11T15:06:02.124Z,45
2018-08-11T15:06:42.557Z,45
2018-08-11T15:07:23.010Z,45
2018-08-11T15:08:03.495Z,45
2018-08-11T15:08:44.335Z,45
2018-08-11T15:09:24.802Z,45
2018-08-11T15:10:05.249Z,45
2018-08-11T15:10:45.841Z,45
2018-08-11T15:11:27.031Z,45
2018-08-11T15:12:07.448Z,45
2018-08-11T15:12:47.858Z,45
2018-08-11T15:15:42.559Z,45
2018-08-11T15:16:24.477Z,45
2018-08-11T15:17:04.760Z,45
2018-08-11T15:17:45.145Z,45
2018-08-11T15:18:25.799Z,45
2018-08-11T15:19:06.106Z,40
2018-08-11T15:19:46.465Z,45
2018-08-11T15:20:26.921Z,45
2018-08-11T15:21:07.393Z,45
2018-08-11T15:21:47.914Z,45
2018-08-11T15:22:28.517Z,45
2018-08-11T15:23:09.553Z,45
2018-08-11T15:23:49.992Z,45
2018-08-11T15:24:33.190Z,45
2018-08-11T15:25:13.653Z,45
2018-08-11T15:25:54.120Z,45
2018-08-11T15:26:34.680Z,45
2018-08-11T15:27:15.131Z,45
2018-08-11T15:27:55.514Z,45
2018-08-11T15:28:35.922Z,45
2018-08-11T15:29:16.892Z,45
2018-08-11T15:29:57.224Z,45
2018-08-11T15:30:39.332Z,45
2018-08-11T15:31:19.711Z,45
2018-08-11T15:32:00.228Z,45
2018-08-11T15:32:40.643Z,45
2018-08-11T15:33:21.068Z,45
2018-08-11T15:34:01.485Z,45
2018-08-11T15:34:41.955Z,45
2018-08-11T15:35:22.768Z,45
2018-08-11T15:36:03.173Z,45
2018-08-11T15:36:43.670Z,45
2018-08-11T15:37:24.124Z,45
2018-08-11T15:38:04.615Z,45
2018-08-11T15:38:45.668Z,45
2018-08-11T15:39:25.889Z,45
2018-08-11T15:40:06.369Z,45
2018-08-11T15:40:47.083Z,45
2018-08-11T15:41:27.632Z,40
2018-08-11T15:42:07.889Z,45
2018-08-11T15:42:48.363Z,45
2018-08-11T15:43:28.856Z,45
2018-08-11T15:44:09.231Z,45
2018-08-11T15:46:39.467Z,45
2018-08-11T15:47:20.369Z,45
2018-08-11T15:48:00.707Z,45
2018-08-11T15:48:41.116Z,45
2018-08-11T15:49:21.518Z,45
2018-08-11T15:50:01.940Z,40
2018-08-11T15:50:43.192Z,40
2018-08-11T15:51:23.820Z,40
2018-08-11T15:52:04.446Z,40
2018-08-11T15:52:45.728Z,40
2018-08-11T15:53:26.247Z,40
2018-08-11T15:54:06.710Z,40
2018-08-11T15:54:47.135Z,40
2018-08-11T15:55:27.527Z,40
2018-08-11T15:56:07.971Z,40
2018-08-11T15:56:48.398Z,40
2018-08-11T15:57:29.014Z,40
2018-08-11T15:58:09.403Z,40
2018-08-11T15:58:49.788Z,40
2018-08-11T15:59:30.316Z,40
2018-08-11T16:00:10.733Z,40
2018-08-11T16:00:51.224Z,40
2018-08-11T16:01:31.706Z,40
2018-08-11T16:02:12.911Z,40
2018-08-11T16:02:53.371Z,40
2018-08-11T16:03:33.724Z,35
2018-08-11T16:04:14.215Z,35
2018-08-11T16:04:54.568Z,35
2018-08-11T16:05:35.069Z,35
2018-08-11T16:06:15.493Z,35
2018-08-11T16:06:55.948Z,35
2018-08-11T16:07:36.620Z,35
2018-08-11T16:08:17.836Z,35
2018-08-11T16:08:58.274Z,35
2018-08-11T16:09:38.794Z,35
2018-08-11T16:10:19.316Z,35
2018-08-11T16:10:59.696Z,35
2018-08-11T16:11:40.198Z,35
2018-08-11T16:12:20.596Z,35
2018-08-11T16:13:01.221Z,35
2018-08-11T16:13:41.606Z,35
2018-08-11T16:14:22.216Z,35
2018-08-11T16:15:02.348Z,35
2018-08-11T16:15:42.932Z,35
2018-08-11T16:16:23.162Z,35
2018-08-11T16:17:03.563Z,35
2018-08-11T16:17:44.080Z,35
2018-08-11T16:18:24.669Z,35
2018-08-11T16:19:05.122Z,35
2018-08-11T16:19:45.499Z,35
2018-08-11T16:20:25.891Z,35
2018-08-11T16:21:06.287Z,35
2018-08-11T16:21:46.769Z,35
2018-08-11T16:22:27.151Z,35
2018-08-11T16:23:07.593Z,35
2018-08-11T16:23:47.965Z,35
2018-08-11T16:24:28.435Z,35
2018-08-11T16:25:08.846Z,35
2018-08-11T16:27:45.418Z,30
2018-08-11T16:28:25.826Z,30
2018-08-11T16:29:06.233Z,30
2018-08-11T16:29:47.111Z,30
2018-08-11T16:30:27.182Z,30
2018-08-11T17:08:41.951Z,25
2018-08-11T17:09:22.357Z,30
2018-08-11T17:10:02.782Z,30
2018-08-11T17:10:43.245Z,30
2018-08-11T17:11:23.695Z,30
2018-08-11T17:12:04.395Z,30
2018-08-11T17:12:44.635Z,30
2018-08-11T17:13:25.119Z,30
2018-08-11T17:14:05.497Z,30
2018-08-11T17:14:46.382Z,30
2018-08-11T17:15:26.845Z,30
2018-08-11T17:16:07.302Z,30
2018-08-11T17:16:47.664Z,30
2018-08-11T17:17:30.828Z,30
2018-08-11T17:18:10.832Z,30
2018-08-11T17:18:51.267Z,30
2018-08-11T17:19:31.817Z,30
2018-08-11T17:20:12.146Z,30
2018-08-11T17:20:52.617Z,30
2018-08-11T17:21:32.964Z,30
2018-08-11T17:24:13.877Z,30
2018-08-11T17:24:54.360Z,25
2018-08-11T17:25:34.805Z,25
2018-08-11T17:26:15.817Z,25
2018-08-11T17:28:30.552Z,25
2018-08-11T17:29:10.956Z,25
2018-08-11T17:29:51.435Z,20
2018-08-11T17:30:31.846Z,20
2018-08-11T17:31:12.235Z,20
2018-08-11T17:31:52.704Z,20
2018-08-11T17:32:33.051Z,20
2018-08-11T17:33:13.453Z,20
2018-08-11T17:33:53.967Z,20
2018-08-11T17:34:34.643Z,20
2018-08-11T17:35:15.027Z,20
2018-08-11T17:37:30.167Z,20
2018-08-11T17:38:14.343Z,20
2018-08-11T17:38:54.932Z,20
2018-08-11T17:39:35.168Z,20
2018-08-11T17:40:15.596Z,20
2018-08-11T17:40:56.069Z,20
2018-08-11T17:41:36.497Z,20
2018-08-11T17:42:16.892Z,20
2018-08-11T17:42:57.406Z,20
2018-08-11T17:43:37.683Z,20
2018-08-11T17:44:18.233Z,20
2018-08-11T17:44:58.577Z,20
2018-08-11T17:45:38.996Z,20
2018-08-11T17:46:19.496Z,20
2018-08-11T17:46:59.850Z,20
2018-08-11T17:47:40.308Z,20
2018-08-11T17:48:20.696Z,20
2018-08-11T17:49:01.122Z,20
2018-08-11T17:49:41.519Z,20
2018-08-11T17:50:21.894Z,20
2018-08-11T17:51:02.383Z,20
2018-08-11T17:51:42.800Z,20
2018-08-11T17:52:23.202Z,20
2018-08-11T17:53:03.648Z,20
2018-08-11T17:53:44.041Z,20
2018-08-11T17:54:24.511Z,20
2018-08-11T17:55:04.956Z,20
2018-08-11T17:55:45.443Z,20
2018-08-11T17:56:25.872Z,20
2018-08-11T17:57:06.263Z,20
2018-08-11T17:57:46.656Z,20
2018-08-11T17:58:27.145Z,20
2018-08-11T17:59:07.836Z,20
2018-08-11T17:59:48.444Z,20
2018-08-11T18:00:28.922Z,20
2018-08-11T18:01:09.264Z,15
2018-08-11T18:01:50.179Z,15
2018-08-11T18:02:30.645Z,15
2018-08-11T18:03:11.067Z,15
2018-08-11T18:03:52.696Z,15
2018-08-11T18:04:32.448Z,15
2018-08-11T18:05:12.967Z,15
2018-08-11T18:05:53.404Z,15
2018-08-11T18:06:34.465Z,15
2018-08-11T18:07:14.896Z,15
2018-08-11T18:07:55.404Z,15
2018-08-11T18:08:35.775Z,15
2018-08-11T18:09:16.210Z,15
2018-08-11T18:09:56.585Z,15
2018-08-11T18:10:37.118Z,15
2018-08-11T18:11:17.447Z,15
2018-08-11T18:11:57.792Z,15
2018-08-11T18:12:38.262Z,15
2018-08-11T18:13:18.642Z,15
2018-08-11T18:13:59.052Z,15
2018-08-11T18:14:39.517Z,15
2018-08-11T18:15:20.165Z,10
2018-08-11T18:16:00.517Z,10
2018-08-11T18:16:40.929Z,10
2018-08-11T18:17:21.357Z,10
2018-08-11T18:18:01.897Z,10
2018-08-11T18:18:42.166Z,10
2018-08-11T18:19:22.628Z,10
2018-08-11T18:20:03.054Z,10
2018-08-11T18:20:43.497Z,10
2018-08-11T18:21:23.953Z,10
2018-08-11T18:22:04.319Z,10
2018-08-11T18:22:45.030Z,10
2018-08-11T18:23:25.316Z,10